Time,TemperatureF,DewpointF,PressureIn,WindDirection,WindDirectionDegrees,WindSpeedMPH,WindSpeedGustMPH,Humidity,HourlyPrecipIn,Conditions,Clouds,dailyrainin,SoftwareType,DateUTC
2013-08-09 00:04:00,79.6,77.0,30.06,SSW,208,0.0,9.0,90,0.00,,,0.00,weatherlink.com 1.10,2013-08-09 04:04:00,
2013-08-09 00:19:00,79.6,77.0,30.06,SW,215,0.0,6.0,90,0.00,,,0.00,weatherlink.com 1.10,2013-08-09 04:19:00,
2013-08-09 00:34:00,79.6,77.0,30.05,SW,219,0.0,9.0,90,0.00,,,0.00,weatherlink.com 1.10,2013-08-09 04:34:00,
2013-08-09 00:49:00,79.8,77.0,30.06,SSW,209,0.0,7.0,90,0.00,,,0.00,weatherlink.com 1.10,2013-08-09 04:49:00,
2013-08-09 01:04:00,79.7,77.0,30.06,SSW,195,0.0,6.0,90,0.00,,,0.00,weatherlink.com 1.10,2013-08-09 05:04:00,
2013-08-09 01:19:00,79.6,77.0,30.05,SSW,197,0.0,7.0,90,0.00,,,0.00,weatherlink.com 1.10,2013-08-09 05:19:00,
2013-08-09 01:34:00,79.6,77.0,30.05,SSW,202,0.0,6.0,90,0.00,,,0.00,weatherlink.com 1.10,2013-08-09 05:34:00,
2013-08-09 01:49:00,79.4,76.0,30.04,SSW,198,0.0,7.0,90,0.00,,,0.00,weatherlink.com 1.10,2013-08-09 05:49:00,
2013-08-09 02:04:00,79.4,76.0,30.04,SSW,203,2.0,5.0,90,0.00,,,0.00,weatherlink.com 1.10,2013-08-09 06:04:00,
2013-08-09 02:19:00,79.4,76.0,30.04,South,190,0.0,8.0,90,0.00,,,0.00,weatherlink.com 1.10,2013-08-09 06:19:00,
2013-08-09 02:34:00,79.4,76.0,30.04,WSW,237,1.0,5.0,90,0.00,,,0.00,weatherlink.com 1.10,2013-08-09 06:34:00,
2013-08-09 02:49:00,79.3,76.0,30.04,SSW,197,1.0,5.0,90,0.00,,,0.00,weatherlink.com 1.10,2013-08-09 06:49:00,
2013-08-09 03:04:00,79.2,76.0,30.04,SSW,197,0.0,5.0,90,0.00,,,0.00,weatherlink.com 1.10,2013-08-09 07:04:00,
2013-08-09 03:19:00,79.3,76.0,30.03,SSW,200,2.0,5.0,90,0.00,,,0.00,weatherlink.com 1.10,2013-08-09 07:19:00,
2013-08-09 03:34:00,79.3,76.0,30.02,SSW,204,0.0,4.0,90,0.00,,,0.00,weatherlink.com 1.10,2013-08-09 07:34:00,
2013-08-09 03:49:00,79.3,76.0,30.03,SSW,192,0.0,7.0,90,0.00,,,0.00,weatherlink.com 1.10,2013-08-09 07:49:00,
2013-08-09 04:04:00,79.4,76.0,30.02,South,183,0.0,5.0,90,0.00,,,0.00,weatherlink.com 1.10,2013-08-09 08:04:00,
2013-08-09 04:19:00,79.5,76.0,30.03,SSE,165,1.0,6.0,90,0.00,,,0.00,weatherlink.com 1.10,2013-08-09 08:19:00,
2013-08-09 04:34:00,79.4,76.0,30.03,WSW,255,0.0,5.0,90,0.00,,,0.00,weatherlink.com 1.10,2013-08-09 08:34:00,
2013-08-09 04:49:00,79.3,76.0,30.03,WSW,256,0.0,1.0,90,0.00,,,0.00,weatherlink.com 1.10,2013-08-09 08:49:00,
2013-08-09 05:04:00,79.3,76.0,30.04,WSW,255,0.0,2.0,90,0.00,,,0.00,weatherlink.com 1.10,2013-08-09 09:04:00,
2013-08-09 05:19:00,79.1,76.0,30.04,West,259,0.0,5.0,90,0.00,,,0.00,weatherlink.com 1.10,2013-08-09 09:19:00,
2013-08-09 05:34:00,79.0,76.0,30.04,SSW,210,0.0,3.0,90,0.00,,,0.00,weatherlink.com 1.10,2013-08-09 09:34:00,
2013-08-09 05:49:00,78.9,76.0,30.05,SW,224,2.0,3.0,90,0.00,,,0.00,weatherlink.com 1.10,2013-08-09 09:49:00,
2013-08-09 06:04:00,78.7,76.0,30.05,WSW,238,1.0,4.0,90,0.00,,,0.00,weatherlink.com 1.10,2013-08-09 10:04:00,
2013-08-09 06:19:00,78.4,75.0,30.06,WSW,238,0.0,2.0,90,0.00,,,0.00,weatherlink.com 1.10,2013-08-09 10:19:00,
2013-08-09 06:34:00,78.2,75.0,30.07,WSW,238,2.0,3.0,91,0.00,,,0.00,weatherlink.com 1.10,2013-08-09 10:34:00,
2013-08-09 06:49:00,78.0,75.0,30.07,WSW,239,1.0,3.0,91,0.00,,,0.00,weatherlink.com 1.10,2013-08-09 10:49:00,
2013-08-09 07:04:00,78.1,75.0,30.07,WSW,239,0.0,1.0,91,0.00,,,0.00,weatherlink.com 1.10,2013-08-09 11:04:00,
2013-08-09 07:19:00,78.3,76.0,30.07,WSW,245,0.0,1.0,91,0.00,,,0.00,weatherlink.com 1.10,2013-08-09 11:19:00,
2013-08-09 07:34:00,78.6,76.0,30.07,WSW,251,0.0,2.0,91,0.00,,,0.00,weatherlink.com 1.10,2013-08-09 11:34:00,
2013-08-09 07:49:00,79.2,76.0,30.08,WSW,252,0.0,3.0,90,0.00,,,0.00,weatherlink.com 1.10,2013-08-09 11:49:00,
2013-08-09 08:04:00,79.7,76.0,30.08,West,281,1.0,8.0,89,0.00,,,0.00,weatherlink.com 1.10,2013-08-09 12:04:00,
2013-08-09 08:19:00,80.6,77.0,30.08,West,275,0.0,7.0,89,0.00,,,0.00,weatherlink.com 1.10,2013-08-09 12:19:00,
2013-08-09 08:34:00,81.5,78.0,30.08,West,269,1.0,6.0,88,0.00,,,0.00,weatherlink.com 1.10,2013-08-09 12:34:00,
2013-08-09 08:49:00,82.5,78.0,30.08,West,274,0.0,6.0,85,0.00,,,0.00,weatherlink.com 1.10,2013-08-09 12:49:00,
2013-08-09 09:04:00,83.9,79.0,30.08,West,269,0.0,6.0,84,0.00,,,0.00,weatherlink.com 1.10,2013-08-09 13:04:00,
2013-08-09 09:19:00,84.7,79.0,30.08,WSW,252,6.0,6.0,82,0.00,,,0.00,weatherlink.com 1.10,2013-08-09 13:19:00,
2013-08-09 09:34:00,85.0,79.0,30.09,West,277,0.0,5.0,81,0.00,,,0.00,weatherlink.com 1.10,2013-08-09 13:34:00,
2013-08-09 09:49:00,84.5,78.0,30.08,West,279,0.0,7.0,81,0.00,,,0.00,weatherlink.com 1.10,2013-08-09 13:49:00,
2013-08-09 10:04:00,84.3,78.0,30.09,SW,215,0.0,8.0,80,0.00,,,0.00,weatherlink.com 1.10,2013-08-09 14:04:00,
2013-08-09 10:19:00,85.9,80.0,30.09,SSE,155,9.0,9.0,81,0.00,,,0.00,weatherlink.com 1.10,2013-08-09 14:19:00,
2013-08-09 10:34:00,86.5,80.0,30.09,SSW,204,7.0,13.0,81,0.00,,,0.00,weatherlink.com 1.10,2013-08-09 14:34:00,
2013-08-09 10:49:00,87.7,80.0,30.09,SW,221,5.0,11.0,78,0.00,,,0.00,weatherlink.com 1.10,2013-08-09 14:49:00,
2013-08-09 11:04:00,87.9,80.0,30.10,South,174,2.0,12.0,78,0.00,,,0.00,weatherlink.com 1.10,2013-08-09 15:04:00,
2013-08-09 11:19:00,88.1,79.0,30.10,South,177,11.0,14.0,75,0.00,,,0.00,weatherlink.com 1.10,2013-08-09 15:19:00,
2013-08-09 11:34:00,88.2,79.0,30.09,West,278,1.0,10.0,75,0.00,,,0.00,weatherlink.com 1.10,2013-08-09 15:34:00,
2013-08-09 11:49:00,88.6,79.0,30.09,WSW,238,6.0,11.0,74,0.00,,,0.00,weatherlink.com 1.10,2013-08-09 15:49:00,
2013-08-09 12:05:00,89.5,79.0,30.09,SSW,211,6.0,14.0,72,0.00,,,0.00,weatherlink.com 1.10,2013-08-09 16:05:00,
2013-08-09 12:20:00,88.7,79.0,30.09,SSW,209,6.0,12.0,73,0.00,,,0.00,weatherlink.com 1.10,2013-08-09 16:20:00,
2013-08-09 12:35:00,88.0,80.0,30.09,SSW,201,5.0,12.0,76,0.00,,,0.00,weatherlink.com 1.10,2013-08-09 16:35:00,
2013-08-09 12:50:00,89.6,80.0,30.09,SSW,200,5.0,14.0,73,0.00,,,0.00,weatherlink.com 1.10,2013-08-09 16:50:00,
2013-08-09 13:05:00,90.0,80.0,30.08,SW,226,2.0,15.0,72,0.00,,,0.00,weatherlink.com 1.10,2013-08-09 17:05:00,
2013-08-09 13:20:00,90.4,80.0,30.07,South,173,2.0,12.0,71,0.00,,,0.00,weatherlink.com 1.10,2013-08-09 17:20:00,
2013-08-09 13:35:00,90.7,81.0,30.07,South,182,6.0,12.0,72,0.00,,,0.00,weatherlink.com 1.10,2013-08-09 17:35:00,
2013-08-09 13:50:00,90.9,81.0,30.07,SW,225,11.0,14.0,73,0.00,,,0.00,weatherlink.com 1.10,2013-08-09 17:50:00,
2013-08-09 14:05:00,90.3,81.0,30.07,SSW,192,8.0,15.0,74,0.00,,,0.00,weatherlink.com 1.10,2013-08-09 18:05:00,
2013-08-09 14:20:00,90.1,81.0,30.07,South,188,7.0,14.0,74,0.00,,,0.00,weatherlink.com 1.10,2013-08-09 18:20:00,
2013-08-09 14:35:00,90.1,81.0,30.07,WSW,250,1.0,14.0,74,0.00,,,0.00,weatherlink.com 1.10,2013-08-09 18:35:00,
2013-08-09 14:50:00,90.8,81.0,30.07,West,273,6.0,20.0,73,0.00,,,0.00,weatherlink.com 1.10,2013-08-09 18:50:00,
2013-08-09 15:05:00,91.2,81.0,30.07,SW,225,6.0,14.0,72,0.00,,,0.00,weatherlink.com 1.10,2013-08-09 19:05:00,
2013-08-09 15:20:00,90.2,81.0,30.07,West,277,3.0,17.0,73,0.00,,,0.00,weatherlink.com 1.10,2013-08-09 19:20:00,
2013-08-09 15:35:00,90.1,80.0,30.06,SSW,207,6.0,15.0,73,0.00,,,0.00,weatherlink.com 1.10,2013-08-09 19:35:00,
2013-08-09 15:50:00,89.6,81.0,30.05,South,171,9.0,15.0,75,0.00,,,0.00,weatherlink.com 1.10,2013-08-09 19:50:00,
2013-08-09 16:05:00,89.4,81.0,30.05,SSW,194,4.0,17.0,75,0.00,,,0.00,weatherlink.com 1.10,2013-08-09 20:05:00,
2013-08-09 16:20:00,89.5,80.0,30.05,SSW,213,1.0,15.0,73,0.00,,,0.00,weatherlink.com 1.10,2013-08-09 20:20:00,
2013-08-09 16:35:00,89.1,80.0,30.04,SW,217,3.0,18.0,74,0.00,,,0.00,weatherlink.com 1.10,2013-08-09 20:35:00,
2013-08-09 16:50:00,88.8,79.0,30.04,SW,222,4.0,12.0,73,0.00,,,0.00,weatherlink.com 1.10,2013-08-09 20:50:00,
2013-08-09 17:05:00,87.5,79.0,30.04,SSE,167,0.0,11.0,76,0.00,,,0.00,weatherlink.com 1.10,2013-08-09 21:05:00,
2013-08-09 17:20:00,86.2,78.0,30.04,SSW,197,5.0,13.0,77,0.00,,,0.00,weatherlink.com 1.10,2013-08-09 21:20:00,
2013-08-09 17:35:00,85.4,78.0,30.04,SW,215,6.0,16.0,79,0.00,,,0.00,weatherlink.com 1.10,2013-08-09 21:35:00,
2013-08-09 17:50:00,85.1,79.0,30.03,SW,215,5.0,15.0,81,0.00,,,0.00,weatherlink.com 1.10,2013-08-09 21:50:00,
2013-08-09 18:05:00,84.7,78.0,30.03,South,181,3.0,12.0,81,0.00,,,0.00,weatherlink.com 1.10,2013-08-09 22:05:00,
2013-08-09 18:20:00,84.2,78.0,30.04,SW,229,2.0,18.0,81,0.00,,,0.00,weatherlink.com 1.10,2013-08-09 22:20:00,
2013-08-09 18:35:00,83.9,78.0,30.03,SSW,202,5.0,15.0,82,0.00,,,0.00,weatherlink.com 1.10,2013-08-09 22:35:00,
2013-08-09 18:50:00,83.5,78.0,30.04,SW,234,1.0,15.0,82,0.00,,,0.00,weatherlink.com 1.10,2013-08-09 22:50:00,
2013-08-09 19:05:00,83.2,77.0,30.04,SSW,194,7.0,10.0,82,0.00,,,0.00,weatherlink.com 1.10,2013-08-09 23:05:00,
2013-08-09 19:20:00,82.7,77.0,30.04,South,183,3.0,14.0,83,0.00,,,0.00,weatherlink.com 1.10,2013-08-09 23:20:00,
2013-08-09 19:35:00,82.3,77.0,30.04,SE,127,2.0,10.0,83,0.00,,,0.00,weatherlink.com 1.10,2013-08-09 23:35:00,
2013-08-09 19:50:00,81.9,77.0,30.04,SSW,197,5.0,10.0,84,0.00,,,0.00,weatherlink.com 1.10,2013-08-09 23:50:00,
2013-08-09 20:05:00,81.6,77.0,30.05,SSE,157,2.0,12.0,85,0.00,,,0.00,weatherlink.com 1.10,2013-08-10 00:05:00,
2013-08-09 20:20:00,81.3,77.0,30.05,SSE,165,0.0,15.0,85,0.00,,,0.00,weatherlink.com 1.10,2013-08-10 00:20:00,
2013-08-09 20:35:00,81.2,77.0,30.05,SSW,193,4.0,11.0,86,0.00,,,0.00,weatherlink.com 1.10,2013-08-10 00:35:00,
2013-08-09 20:50:00,81.0,77.0,30.05,SSW,194,9.0,10.0,86,0.00,,,0.00,weatherlink.com 1.10,2013-08-10 00:50:00,
2013-08-09 21:05:00,80.9,76.0,30.05,SSW,192,2.0,12.0,86,0.00,,,0.00,weatherlink.com 1.10,2013-08-10 01:05:00,
2013-08-09 21:20:00,80.9,76.0,30.06,WSW,254,3.0,13.0,86,0.00,,,0.00,weatherlink.com 1.10,2013-08-10 01:20:00,
2013-08-09 21:35:00,80.8,76.0,30.07,SE,143,4.0,7.0,86,0.00,,,0.00,weatherlink.com 1.10,2013-08-10 01:35:00,
2013-08-09 21:50:00,80.9,77.0,30.07,South,173,2.0,8.0,87,0.00,,,0.00,weatherlink.com 1.10,2013-08-10 01:50:00,
2013-08-09 22:05:00,80.8,77.0,30.07,SSW,200,0.0,10.0,87,0.00,,,0.00,weatherlink.com 1.10,2013-08-10 02:05:00,
2013-08-09 22:20:00,80.7,77.0,30.07,SSW,202,0.0,9.0,87,0.00,,,0.00,weatherlink.com 1.10,2013-08-10 02:20:00,
2013-08-09 22:35:00,80.6,77.0,30.07,SW,222,6.0,8.0,88,0.00,,,0.00,weatherlink.com 1.10,2013-08-10 02:35:00,
2013-08-09 22:50:00,80.6,77.0,30.07,SSW,207,1.0,11.0,88,0.00,,,0.00,weatherlink.com 1.10,2013-08-10 02:50:00,
2013-08-09 23:06:00,80.6,77.0,30.07,SSW,203,0.0,6.0,88,0.00,,,0.00,weatherlink.com 1.10,2013-08-10 03:06:00,
2013-08-09 23:21:00,80.6,77.0,30.07,SSW,203,3.0,8.0,88,0.00,,,0.00,weatherlink.com 1.10,2013-08-10 03:21:00,
2013-08-09 23:36:00,80.5,77.0,30.08,South,170,0.0,7.0,88,0.00,,,0.00,weatherlink.com 1.10,2013-08-10 03:36:00,
2013-08-09 23:51:00,80.5,77.0,30.08,South,181,2.0,7.0,88,0.00,,,0.00,weatherlink.com 1.10,2013-08-10 03:51:00,